sensor_id;sensor_type;location;lat;lon;timestamp;temperature;humidity
35746;DHT22;21870;42.812;74.628;2023-08-01T00:00:05;26.20;79.70
35746;DHT22;21870;42.812;74.628;2023-08-01T00:02:33;26.20;80.00
35746;DHT22;21870;42.812;74.628;2023-08-01T00:04:59;26.10;79.90
35746;DHT22;21870;42.812;74.628;2023-08-01T00:07:28;26.10;80.00
35746;DHT22;21870;42.812;74.628;2023-08-01T00:09:54;26.10;79.90
35746;DHT22;21870;42.812;74.628;2023-08-01T00:12:20;26.10;80.10
35746;DHT22;21870;42.812;74.628;2023-08-01T00:14:47;26.10;80.20
35746;DHT22;21870;42.812;74.628;2023-08-01T00:17:13;26.10;80.20
35746;DHT22;21870;42.812;74.628;2023-08-01T00:19:39;26.10;80.10
35746;DHT22;21870;42.812;74.628;2023-08-01T00:22:05;26.10;80.10
35746;DHT22;21870;42.812;74.628;2023-08-01T00:24:31;26.10;80.30
35746;DHT22;21870;42.812;74.628;2023-08-01T00:26:57;26.10;80.20
35746;DHT22;21870;42.812;74.628;2023-08-01T00:29:23;26.10;80.40
35746;DHT22;21870;42.812;74.628;2023-08-01T00:31:52;26.10;80.40
35746;DHT22;21870;42.812;74.628;2023-08-01T00:34:18;26.10;80.60
35746;DHT22;21870;42.812;74.628;2023-08-01T00:36:44;26.10;80.40
35746;DHT22;21870;42.812;74.628;2023-08-01T00:39:10;26.20;80.60
35746;DHT22;21870;42.812;74.628;2023-08-01T00:41:36;26.20;80.60
35746;DHT22;21870;42.812;74.628;2023-08-01T00:44:02;26.20;80.40
35746;DHT22;21870;42.812;74.628;2023-08-01T00:46:28;26.30;80.40
35746;DHT22;21870;42.812;74.628;2023-08-01T00:48:55;26.30;80.30
35746;DHT22;21870;42.812;74.628;2023-08-01T00:51:26;26.40;80.10
35746;DHT22;21870;42.812;74.628;2023-08-01T00:53:53;26.50;80.00
35746;DHT22;21870;42.812;74.628;2023-08-01T00:56:19;26.60;80.10
35746;DHT22;21870;42.812;74.628;2023-08-01T00:58:45;26.60;80.10
35746;DHT22;21870;42.812;74.628;2023-08-01T01:01:11;26.70;79.90
35746;DHT22;21870;42.812;74.628;2023-08-01T01:03:38;26.80;79.80
35746;DHT22;21870;42.812;74.628;2023-08-01T01:06:32;26.80;79.80
35746;DHT22;21870;42.812;74.628;2023-08-01T01:08:59;26.90;79.60
35746;DHT22;21870;42.812;74.628;2023-08-01T01:11:25;27.00;79.40
35746;DHT22;21870;42.812;74.628;2023-08-01T01:13:51;27.10;79.20
35746;DHT22;21870;42.812;74.628;2023-08-01T01:16:20;27.20;79.20
35746;DHT22;21870;42.812;74.628;2023-08-01T01:18:49;27.40;79.40
35746;DHT22;21870;42.812;74.628;2023-08-01T01:21:15;27.40;79.20
35746;DHT22;21870;42.812;74.628;2023-08-01T01:23:41;27.50;78.90
35746;DHT22;21870;42.812;74.628;2023-08-01T01:26:08;27.60;79.10
35746;DHT22;21870;42.812;74.628;2023-08-01T01:28:35;27.70;79.00
35746;DHT22;21870;42.812;74.628;2023-08-01T01:31:02;27.80;79.20
35746;DHT22;21870;42.812;74.628;2023-08-01T01:33:28;27.90;79.20
35746;DHT22;21870;42.812;74.628;2023-08-01T01:35:54;28.00;79.10
35746;DHT22;21870;42.812;74.628;2023-08-01T01:38:20;28.10;78.60
35746;DHT22;21870;42.812;74.628;2023-08-01T01:40:46;28.30;78.50
35746;DHT22;21870;42.812;74.628;2023-08-01T01:43:12;28.40;78.50
35746;DHT22;21870;42.812;74.628;2023-08-01T01:45:38;28.50;78.10
35746;DHT22;21870;42.812;74.628;2023-08-01T01:48:04;28.60;78.70
35746;DHT22;21870;42.812;74.628;2023-08-01T01:50:30;28.70;78.90
35746;DHT22;21870;42.812;74.628;2023-08-01T01:52:56;28.80;78.00
35746;DHT22;21870;42.812;74.628;2023-08-01T01:55:22;29.00;78.20
35746;DHT22;21870;42.812;74.628;2023-08-01T01:57:48;29.10;77.80
35746;DHT22;21870;42.812;74.628;2023-08-01T02:00:14;29.20;77.00
35746;DHT22;21870;42.812;74.628;2023-08-01T02:02:40;29.30;77.10
35746;DHT22;21870;42.812;74.628;2023-08-01T02:05:06;29.50;76.80
35746;DHT22;21870;42.812;74.628;2023-08-01T02:07:32;29.60;76.60
35746;DHT22;21870;42.812;74.628;2023-08-01T02:10:00;29.70;77.00
35746;DHT22;21870;42.812;74.628;2023-08-01T02:12:26;29.90;76.40
35746;DHT22;21870;42.812;74.628;2023-08-01T02:14:52;30.00;76.60
35746;DHT22;21870;42.812;74.628;2023-08-01T02:17:20;30.20;76.10
35746;DHT22;21870;42.812;74.628;2023-08-01T02:19:46;30.40;75.20
35746;DHT22;21870;42.812;74.628;2023-08-01T02:22:12;30.50;75.40
35746;DHT22;21870;42.812;74.628;2023-08-01T02:24:38;30.60;75.10
35746;DHT22;21870;42.812;74.628;2023-08-01T02:27:04;30.80;74.90
35746;DHT22;21870;42.812;74.628;2023-08-01T02:29:30;30.90;74.80
35746;DHT22;21870;42.812;74.628;2023-08-01T02:31:56;31.00;75.20
35746;DHT22;21870;42.812;74.628;2023-08-01T02:34:22;31.20;74.50
35746;DHT22;21870;42.812;74.628;2023-08-01T02:36:48;31.30;73.90
35746;DHT22;21870;42.812;74.628;2023-08-01T02:39:14;31.50;81.80
35746;DHT22;21870;42.812;74.628;2023-08-01T02:41:40;31.50;85.70
35746;DHT22;21870;42.812;74.628;2023-08-01T02:44:06;31.50;85.40
35746;DHT22;21870;42.812;74.628;2023-08-01T02:46:32;31.50;85.00
35746;DHT22;21870;42.812;74.628;2023-08-01T02:48:58;31.70;85.10
35746;DHT22;21870;42.812;74.628;2023-08-01T02:51:24;31.90;86.30
35746;DHT22;21870;42.812;74.628;2023-08-01T02:53:50;32.00;86.00
35746;DHT22;21870;42.812;74.628;2023-08-01T02:56:16;32.00;83.70
35746;DHT22;21870;42.812;74.628;2023-08-01T03:02:04;32.30;89.40
35746;DHT22;21870;42.812;74.628;2023-08-01T03:04:30;32.40;87.30
35746;DHT22;21870;42.812;74.628;2023-08-01T03:06:56;32.50;86.10
35746;DHT22;21870;42.812;74.628;2023-08-01T03:09:22;32.60;87.70
35746;DHT22;21870;42.812;74.628;2023-08-01T03:11:48;32.70;84.10
35746;DHT22;21870;42.812;74.628;2023-08-01T03:14:14;32.80;83.20
35746;DHT22;21870;42.812;74.628;2023-08-01T03:16:41;32.80;84.20
35746;DHT22;21870;42.812;74.628;2023-08-01T03:19:07;33.00;82.70
35746;DHT22;21870;42.812;74.628;2023-08-01T03:21:34;33.00;84.10
35746;DHT22;21870;42.812;74.628;2023-08-01T03:24:02;33.10;84.60
35746;DHT22;21870;42.812;74.628;2023-08-01T03:26:28;33.20;82.60
35746;DHT22;21870;42.812;74.628;2023-08-01T03:28:55;33.30;84.60
35746;DHT22;21870;42.812;74.628;2023-08-01T03:31:22;33.40;83.00
35746;DHT22;21870;42.812;74.628;2023-08-01T03:33:48;33.40;83.60
35746;DHT22;21870;42.812;74.628;2023-08-01T03:36:14;33.60;82.00
35746;DHT22;21870;42.812;74.628;2023-08-01T03:38:40;33.40;80.20
35746;DHT22;21870;42.812;74.628;2023-08-01T03:41:06;33.10;80.60
35746;DHT22;21870;42.812;74.628;2023-08-01T03:43:32;33.00;81.60
35746;DHT22;21870;42.812;74.628;2023-08-01T03:45:58;32.80;82.10
35746;DHT22;21870;42.812;74.628;2023-08-01T03:48:24;32.70;80.50
35746;DHT22;21870;42.812;74.628;2023-08-01T03:50:50;32.70;81.20
35746;DHT22;21870;42.812;74.628;2023-08-01T03:53:16;32.80;81.40
35746;DHT22;21870;42.812;74.628;2023-08-01T03:55:44;32.70;80.40
35746;DHT22;21870;42.812;74.628;2023-08-01T03:58:10;32.60;78.60
35746;DHT22;21870;42.812;74.628;2023-08-01T04:00:36;32.70;79.80
35746;DHT22;21870;42.812;74.628;2023-08-01T04:03:02;32.70;78.60
35746;DHT22;21870;42.812;74.628;2023-08-01T04:05:29;32.90;79.10
35746;DHT22;21870;42.812;74.628;2023-08-01T04:07:55;33.00;79.20
35746;DHT22;21870;42.812;74.628;2023-08-01T04:10:21;33.10;79.70
35746;DHT22;21870;42.812;74.628;2023-08-01T04:12:47;33.10;79.00
35746;DHT22;21870;42.812;74.628;2023-08-01T04:15:13;33.30;79.40
35746;DHT22;21870;42.812;74.628;2023-08-01T04:17:39;33.40;80.10
35746;DHT22;21870;42.812;74.628;2023-08-01T04:20:06;33.70;80.00
35746;DHT22;21870;42.812;74.628;2023-08-01T04:22:32;33.90;82.30
35746;DHT22;21870;42.812;74.628;2023-08-01T04:24:58;33.80;80.80
35746;DHT22;21870;42.812;74.628;2023-08-01T04:27:24;33.90;82.10
35746;DHT22;21870;42.812;74.628;2023-08-01T04:29:51;34.00;83.20
35746;DHT22;21870;42.812;74.628;2023-08-01T04:32:17;34.10;82.20
35746;DHT22;21870;42.812;74.628;2023-08-01T04:34:43;34.20;80.10
35746;DHT22;21870;42.812;74.628;2023-08-01T04:37:09;34.30;78.90
35746;DHT22;21870;42.812;74.628;2023-08-01T04:39:36;34.30;78.90
35746;DHT22;21870;42.812;74.628;2023-08-01T04:42:02;34.40;82.10
35746;DHT22;21870;42.812;74.628;2023-08-01T04:44:28;34.50;81.80
35746;DHT22;21870;42.812;74.628;2023-08-01T04:46:55;34.80;82.70
35746;DHT22;21870;42.812;74.628;2023-08-01T04:49:21;34.70;78.50
35746;DHT22;21870;42.812;74.628;2023-08-01T04:51:49;34.70;78.60
35746;DHT22;21870;42.812;74.628;2023-08-01T04:54:15;34.80;79.50
35746;DHT22;21870;42.812;74.628;2023-08-01T04:56:41;35.00;76.10
35746;DHT22;21870;42.812;74.628;2023-08-01T04:59:07;35.10;78.80
35746;DHT22;21870;42.812;74.628;2023-08-01T05:01:33;35.20;78.40
35746;DHT22;21870;42.812;74.628;2023-08-01T05:03:59;35.30;76.80
35746;DHT22;21870;42.812;74.628;2023-08-01T05:06:25;35.50;76.80
35746;DHT22;21870;42.812;74.628;2023-08-01T05:08:53;35.60;78.90
35746;DHT22;21870;42.812;74.628;2023-08-01T05:11:19;35.70;75.50
35746;DHT22;21870;42.812;74.628;2023-08-01T05:13:45;35.80;76.00
35746;DHT22;21870;42.812;74.628;2023-08-01T05:16:11;35.80;74.30
35746;DHT22;21870;42.812;74.628;2023-08-01T05:18:37;35.70;74.40
35746;DHT22;21870;42.812;74.628;2023-08-01T05:21:03;35.70;78.90
35746;DHT22;21870;42.812;74.628;2023-08-01T05:23:29;35.90;75.60
35746;DHT22;21870;42.812;74.628;2023-08-01T05:25:55;36.00;75.40
35746;DHT22;21870;42.812;74.628;2023-08-01T05:28:21;36.20;75.50
35746;DHT22;21870;42.812;74.628;2023-08-01T05:30:47;36.20;76.30
35746;DHT22;21870;42.812;74.628;2023-08-01T05:33:13;36.30;75.90
35746;DHT22;21870;42.812;74.628;2023-08-01T05:35:39;36.50;76.30
35746;DHT22;21870;42.812;74.628;2023-08-01T05:38:05;36.40;74.60
35746;DHT22;21870;42.812;74.628;2023-08-01T05:40:31;36.50;74.80
35746;DHT22;21870;42.812;74.628;2023-08-01T05:42:57;36.40;71.60
35746;DHT22;21870;42.812;74.628;2023-08-01T05:45:23;36.40;74.50
35746;DHT22;21870;42.812;74.628;2023-08-01T05:47:49;36.50;72.80
35746;DHT22;21870;42.812;74.628;2023-08-01T05:50:15;36.50;70.40
35746;DHT22;21870;42.812;74.628;2023-08-01T05:52:41;36.40;71.40
35746;DHT22;21870;42.812;74.628;2023-08-01T05:55:08;36.40;71.30
35746;DHT22;21870;42.812;74.628;2023-08-01T05:57:34;36.40;70.50
35746;DHT22;21870;42.812;74.628;2023-08-01T06:00:00;36.30;71.40
35746;DHT22;21870;42.812;74.628;2023-08-01T06:02:26;36.30;71.80
35746;DHT22;21870;42.812;74.628;2023-08-01T06:04:52;36.40;69.30
35746;DHT22;21870;42.812;74.628;2023-08-01T06:07:18;36.50;71.80
35746;DHT22;21870;42.812;74.628;2023-08-01T06:09:50;36.60;73.30
35746;DHT22;21870;42.812;74.628;2023-08-01T06:12:18;36.60;71.00
35746;DHT22;21870;42.812;74.628;2023-08-01T06:14:44;36.70;69.40
35746;DHT22;21870;42.812;74.628;2023-08-01T06:17:10;36.70;71.00
35746;DHT22;21870;42.812;74.628;2023-08-01T06:19:36;36.90;72.70
35746;DHT22;21870;42.812;74.628;2023-08-01T06:22:02;37.00;70.20
35746;DHT22;21870;42.812;74.628;2023-08-01T06:24:28;37.10;71.90
35746;DHT22;21870;42.812;74.628;2023-08-01T06:26:54;37.10;71.40
35746;DHT22;21870;42.812;74.628;2023-08-01T06:29:20;37.20;72.90
35746;DHT22;21870;42.812;74.628;2023-08-01T06:31:46;37.20;69.20
35746;DHT22;21870;42.812;74.628;2023-08-01T06:34:12;37.20;72.00
35746;DHT22;21870;42.812;74.628;2023-08-01T06:36:38;37.40;72.80
35746;DHT22;21870;42.812;74.628;2023-08-01T06:39:04;37.30;72.10
35746;DHT22;21870;42.812;74.628;2023-08-01T06:41:31;37.20;67.70
35746;DHT22;21870;42.812;74.628;2023-08-01T06:43:57;37.20;71.40
35746;DHT22;21870;42.812;74.628;2023-08-01T06:46:23;37.40;71.20
35746;DHT22;21870;42.812;74.628;2023-08-01T06:48:49;37.50;71.20
35746;DHT22;21870;42.812;74.628;2023-08-01T06:51:15;37.60;71.50
35746;DHT22;21870;42.812;74.628;2023-08-01T06:53:41;37.70;70.50
35746;DHT22;21870;42.812;74.628;2023-08-01T06:56:08;37.70;70.20
35746;DHT22;21870;42.812;74.628;2023-08-01T06:58:34;37.70;70.70
35746;DHT22;21870;42.812;74.628;2023-08-01T07:01:00;37.80;69.10
35746;DHT22;21870;42.812;74.628;2023-08-01T07:03:26;37.90;69.60
35746;DHT22;21870;42.812;74.628;2023-08-01T07:05:52;37.80;69.10
35746;DHT22;21870;42.812;74.628;2023-08-01T07:08:18;37.90;66.10
35746;DHT22;21870;42.812;74.628;2023-08-01T07:10:45;37.90;68.60
35746;DHT22;21870;42.812;74.628;2023-08-01T07:13:11;38.10;69.40
35746;DHT22;21870;42.812;74.628;2023-08-01T07:15:37;38.00;70.50
35746;DHT22;21870;42.812;74.628;2023-08-01T07:18:03;38.00;70.60
35746;DHT22;21870;42.812;74.628;2023-08-01T07:20:29;38.10;67.60
35746;DHT22;21870;42.812;74.628;2023-08-01T07:22:55;38.10;64.70
35746;DHT22;21870;42.812;74.628;2023-08-01T07:25:21;38.20;69.10
35746;DHT22;21870;42.812;74.628;2023-08-01T07:27:48;38.20;66.90
35746;DHT22;21870;42.812;74.628;2023-08-01T07:30:14;38.40;68.90
35746;DHT22;21870;42.812;74.628;2023-08-01T07:32:42;38.40;69.70
35746;DHT22;21870;42.812;74.628;2023-08-01T07:35:09;38.50;68.50
35746;DHT22;21870;42.812;74.628;2023-08-01T07:37:35;38.40;67.20
35746;DHT22;21870;42.812;74.628;2023-08-01T07:40:05;38.40;68.00
35746;DHT22;21870;42.812;74.628;2023-08-01T07:42:31;38.40;64.20
35746;DHT22;21870;42.812;74.628;2023-08-01T07:44:57;38.40;66.00
35746;DHT22;21870;42.812;74.628;2023-08-01T07:47:26;38.30;66.50
35746;DHT22;21870;42.812;74.628;2023-08-01T07:49:52;38.50;69.20
35746;DHT22;21870;42.812;74.628;2023-08-01T07:52:18;38.60;67.40
35746;DHT22;21870;42.812;74.628;2023-08-01T07:54:44;38.70;65.90
35746;DHT22;21870;42.812;74.628;2023-08-01T07:57:11;38.60;67.90
35746;DHT22;21870;42.812;74.628;2023-08-01T07:59:37;38.70;68.20
35746;DHT22;21870;42.812;74.628;2023-08-01T08:02:03;38.50;67.40
35746;DHT22;21870;42.812;74.628;2023-08-01T08:04:29;38.40;65.80
35746;DHT22;21870;42.812;74.628;2023-08-01T08:06:55;38.50;68.50
35746;DHT22;21870;42.812;74.628;2023-08-01T08:09:25;38.50;68.60
35746;DHT22;21870;42.812;74.628;2023-08-01T08:11:52;38.50;67.90
35746;DHT22;21870;42.812;74.628;2023-08-01T08:14:18;38.50;66.80
35746;DHT22;21870;42.812;74.628;2023-08-01T08:16:46;38.40;67.70
35746;DHT22;21870;42.812;74.628;2023-08-01T08:19:12;38.30;65.40
35746;DHT22;21870;42.812;74.628;2023-08-01T08:21:38;38.30;65.70
35746;DHT22;21870;42.812;74.628;2023-08-01T08:24:04;38.40;64.80
35746;DHT22;21870;42.812;74.628;2023-08-01T08:26:30;38.40;66.90
35746;DHT22;21870;42.812;74.628;2023-08-01T08:28:56;38.60;66.70
35746;DHT22;21870;42.812;74.628;2023-08-01T08:31:23;38.60;66.00
35746;DHT22;21870;42.812;74.628;2023-08-01T08:33:49;38.50;65.00
35746;DHT22;21870;42.812;74.628;2023-08-01T08:36:15;38.30;64.40
35746;DHT22;21870;42.812;74.628;2023-08-01T08:38:41;38.30;66.10
35746;DHT22;21870;42.812;74.628;2023-08-01T08:41:10;38.30;67.50
35746;DHT22;21870;42.812;74.628;2023-08-01T08:43:36;38.30;64.40
35746;DHT22;21870;42.812;74.628;2023-08-01T08:46:04;38.30;64.50
35746;DHT22;21870;42.812;74.628;2023-08-01T08:48:31;38.20;65.50
35746;DHT22;21870;42.812;74.628;2023-08-01T08:51:00;38.20;65.00
35746;DHT22;21870;42.812;74.628;2023-08-01T08:53:27;38.10;64.90
35746;DHT22;21870;42.812;74.628;2023-08-01T08:55:53;38.00;64.00
35746;DHT22;21870;42.812;74.628;2023-08-01T08:58:19;38.00;63.50
35746;DHT22;21870;42.812;74.628;2023-08-01T09:00:46;38.00;64.30
35746;DHT22;21870;42.812;74.628;2023-08-01T09:03:12;38.10;65.70
35746;DHT22;21870;42.812;74.628;2023-08-01T09:05:49;38.20;66.00
35746;DHT22;21870;42.812;74.628;2023-08-01T09:08:20;38.30;65.20
35746;DHT22;21870;42.812;74.628;2023-08-01T09:10:47;38.40;66.60
35746;DHT22;21870;42.812;74.628;2023-08-01T09:13:14;38.50;66.60
35746;DHT22;21870;42.812;74.628;2023-08-01T09:15:43;38.50;65.30
35746;DHT22;21870;42.812;74.628;2023-08-01T09:18:12;38.50;63.00
35746;DHT22;21870;42.812;74.628;2023-08-01T09:20:46;38.40;61.90
35746;DHT22;21870;42.812;74.628;2023-08-01T09:23:13;38.40;61.80
35746;DHT22;21870;42.812;74.628;2023-08-01T09:25:40;38.50;64.80
35746;DHT22;21870;42.812;74.628;2023-08-01T09:28:17;38.30;63.80
35746;DHT22;21870;42.812;74.628;2023-08-01T09:30:47;38.40;63.70
35746;DHT22;21870;42.812;74.628;2023-08-01T09:33:13;38.20;63.40
35746;DHT22;21870;42.812;74.628;2023-08-01T09:35:39;38.20;62.80
35746;DHT22;21870;42.812;74.628;2023-08-01T09:38:05;38.20;67.00
35746;DHT22;21870;42.812;74.628;2023-08-01T09:40:38;38.20;63.40
35746;DHT22;21870;42.812;74.628;2023-08-01T09:43:04;38.30;64.00
35746;DHT22;21870;42.812;74.628;2023-08-01T09:45:30;38.60;66.20
35746;DHT22;21870;42.812;74.628;2023-08-01T09:47:56;38.40;64.50
35746;DHT22;21870;42.812;74.628;2023-08-01T09:50:24;38.50;63.70
35746;DHT22;21870;42.812;74.628;2023-08-01T09:52:50;38.50;64.30
35746;DHT22;21870;42.812;74.628;2023-08-01T09:55:26;38.50;65.10
35746;DHT22;21870;42.812;74.628;2023-08-01T09:57:58;38.50;65.10
35746;DHT22;21870;42.812;74.628;2023-08-01T10:00:28;38.40;63.90
35746;DHT22;21870;42.812;74.628;2023-08-01T10:02:59;38.40;64.10
35746;DHT22;21870;42.812;74.628;2023-08-01T10:05:29;38.70;64.20
35746;DHT22;21870;42.812;74.628;2023-08-01T10:07:59;38.50;63.00
35746;DHT22;21870;42.812;74.628;2023-08-01T10:10:25;38.40;63.80
35746;DHT22;21870;42.812;74.628;2023-08-01T10:12:52;38.30;63.40
35746;DHT22;21870;42.812;74.628;2023-08-01T10:15:19;38.10;63.80
35746;DHT22;21870;42.812;74.628;2023-08-01T10:17:45;38.10;65.20
35746;DHT22;21870;42.812;74.628;2023-08-01T10:20:12;38.10;66.90
35746;DHT22;21870;42.812;74.628;2023-08-01T10:22:41;38.20;66.40
35746;DHT22;21870;42.812;74.628;2023-08-01T10:25:09;38.20;64.30
35746;DHT22;21870;42.812;74.628;2023-08-01T10:27:36;38.30;62.90
35746;DHT22;21870;42.812;74.628;2023-08-01T10:30:04;38.40;64.70
35746;DHT22;21870;42.812;74.628;2023-08-01T10:32:33;38.40;64.00
35746;DHT22;21870;42.812;74.628;2023-08-01T10:34:59;38.30;65.20
35746;DHT22;21870;42.812;74.628;2023-08-01T10:37:26;38.30;63.20
35746;DHT22;21870;42.812;74.628;2023-08-01T10:39:59;38.20;64.40
35746;DHT22;21870;42.812;74.628;2023-08-01T10:42:26;38.20;64.80
35746;DHT22;21870;42.812;74.628;2023-08-01T10:44:52;38.20;64.50
35746;DHT22;21870;42.812;74.628;2023-08-01T10:47:27;38.20;64.20
35746;DHT22;21870;42.812;74.628;2023-08-01T10:49:53;38.20;63.00
35746;DHT22;21870;42.812;74.628;2023-08-01T10:54:59;38.10;61.60
35746;DHT22;21870;42.812;74.628;2023-08-01T10:57:35;38.10;63.20
35746;DHT22;21870;42.812;74.628;2023-08-01T11:00:03;38.00;63.10
35746;DHT22;21870;42.812;74.628;2023-08-01T11:02:35;37.80;61.40
35746;DHT22;21870;42.812;74.628;2023-08-01T11:07:29;37.80;64.60
35746;DHT22;21870;42.812;74.628;2023-08-01T11:10:07;37.70;63.60
35746;DHT22;21870;42.812;74.628;2023-08-01T11:12:35;37.80;62.50
35746;DHT22;21870;42.812;74.628;2023-08-01T11:15:01;37.80;62.80
35746;DHT22;21870;42.812;74.628;2023-08-01T11:17:27;37.80;62.80
35746;DHT22;21870;42.812;74.628;2023-08-01T11:20:01;37.80;62.40
35746;DHT22;21870;42.812;74.628;2023-08-01T11:22:28;37.70;62.00
35746;DHT22;21870;42.812;74.628;2023-08-01T11:24:54;37.70;63.20
35746;DHT22;21870;42.812;74.628;2023-08-01T11:27:20;37.50;64.40
35746;DHT22;21870;42.812;74.628;2023-08-01T11:29:46;37.40;63.60
35746;DHT22;21870;42.812;74.628;2023-08-01T11:32:12;37.10;63.50
35746;DHT22;21870;42.812;74.628;2023-08-01T11:34:42;37.00;62.80
35746;DHT22;21870;42.812;74.628;2023-08-01T11:37:19;36.80;65.00
35746;DHT22;21870;42.812;74.628;2023-08-01T11:39:46;36.70;64.30
35746;DHT22;21870;42.812;74.628;2023-08-01T11:42:16;36.60;65.90
35746;DHT22;21870;42.812;74.628;2023-08-01T11:44:43;36.70;66.00
35746;DHT22;21870;42.812;74.628;2023-08-01T11:47:14;36.70;64.70
35746;DHT22;21870;42.812;74.628;2023-08-01T11:49:49;36.90;63.50
35746;DHT22;21870;42.812;74.628;2023-08-01T11:52:28;36.90;64.50
35746;DHT22;21870;42.812;74.628;2023-08-01T11:54:55;37.00;63.50
35746;DHT22;21870;42.812;74.628;2023-08-01T11:57:21;36.90;62.40
35746;DHT22;21870;42.812;74.628;2023-08-01T11:59:55;36.90;64.00
35746;DHT22;21870;42.812;74.628;2023-08-01T12:02:22;36.80;63.40
35746;DHT22;21870;42.812;74.628;2023-08-01T12:04:49;36.70;64.10
35746;DHT22;21870;42.812;74.628;2023-08-01T12:07:18;36.60;64.60
35746;DHT22;21870;42.812;74.628;2023-08-01T12:09:45;36.50;63.00
35746;DHT22;21870;42.812;74.628;2023-08-01T12:12:20;36.40;62.40
35746;DHT22;21870;42.812;74.628;2023-08-01T12:14:46;36.30;62.90
35746;DHT22;21870;42.812;74.628;2023-08-01T12:17:12;36.20;62.70
35746;DHT22;21870;42.812;74.628;2023-08-01T12:19:38;36.20;63.40
35746;DHT22;21870;42.812;74.628;2023-08-01T12:22:04;36.20;63.00
35746;DHT22;21870;42.812;74.628;2023-08-01T12:24:30;36.10;63.00
35746;DHT22;21870;42.812;74.628;2023-08-01T12:26:56;36.00;64.20
35746;DHT22;21870;42.812;74.628;2023-08-01T12:29:22;35.90;63.40
35746;DHT22;21870;42.812;74.628;2023-08-01T12:31:48;35.90;63.40
35746;DHT22;21870;42.812;74.628;2023-08-01T12:34:17;35.80;63.90
35746;DHT22;21870;42.812;74.628;2023-08-01T12:36:43;35.60;64.80
35746;DHT22;21870;42.812;74.628;2023-08-01T12:39:10;35.50;64.10
35746;DHT22;21870;42.812;74.628;2023-08-01T12:41:37;35.50;63.00
35746;DHT22;21870;42.812;74.628;2023-08-01T12:44:04;35.40;63.30
35746;DHT22;21870;42.812;74.628;2023-08-01T12:46:30;35.40;63.50
35746;DHT22;21870;42.812;74.628;2023-08-01T12:48:56;35.30;63.30
35746;DHT22;21870;42.812;74.628;2023-08-01T12:51:22;35.30;63.30
35746;DHT22;21870;42.812;74.628;2023-08-01T12:53:48;35.20;63.80
35746;DHT22;21870;42.812;74.628;2023-08-01T12:56:14;35.00;64.20
35746;DHT22;21870;42.812;74.628;2023-08-01T12:58:40;34.80;64.20
35746;DHT22;21870;42.812;74.628;2023-08-01T13:01:07;34.60;65.20
35746;DHT22;21870;42.812;74.628;2023-08-01T13:03:33;34.60;66.10
35746;DHT22;21870;42.812;74.628;2023-08-01T13:05:59;34.50;66.80
35746;DHT22;21870;42.812;74.628;2023-08-01T13:08:25;34.40;67.60
35746;DHT22;21870;42.812;74.628;2023-08-01T13:10:51;34.30;66.70
35746;DHT22;21870;42.812;74.628;2023-08-01T13:13:17;34.20;66.40
35746;DHT22;21870;42.812;74.628;2023-08-01T13:15:43;34.20;66.20
35746;DHT22;21870;42.812;74.628;2023-08-01T13:18:13;34.10;66.00
35746;DHT22;21870;42.812;74.628;2023-08-01T13:20:39;34.00;66.40
35746;DHT22;21870;42.812;74.628;2023-08-01T13:23:05;34.00;66.00
35746;DHT22;21870;42.812;74.628;2023-08-01T13:25:32;34.00;66.00
35746;DHT22;21870;42.812;74.628;2023-08-01T13:27:58;33.90;67.90
35746;DHT22;21870;42.812;74.628;2023-08-01T13:30:24;33.80;68.40
35746;DHT22;21870;42.812;74.628;2023-08-01T13:32:50;33.70;68.90
35746;DHT22;21870;42.812;74.628;2023-08-01T13:35:16;33.50;69.10
35746;DHT22;21870;42.812;74.628;2023-08-01T13:37:42;33.50;69.40
35746;DHT22;21870;42.812;74.628;2023-08-01T13:40:08;33.40;69.70
35746;DHT22;21870;42.812;74.628;2023-08-01T13:42:37;33.30;69.70
35746;DHT22;21870;42.812;74.628;2023-08-01T13:45:03;33.30;69.70
35746;DHT22;21870;42.812;74.628;2023-08-01T13:47:29;33.20;69.60
35746;DHT22;21870;42.812;74.628;2023-08-01T13:49:55;33.20;70.00
35746;DHT22;21870;42.812;74.628;2023-08-01T13:52:21;33.20;70.00
35746;DHT22;21870;42.812;74.628;2023-08-01T13:54:47;33.00;70.00
35746;DHT22;21870;42.812;74.628;2023-08-01T13:57:13;33.00;69.90
35746;DHT22;21870;42.812;74.628;2023-08-01T13:59:39;32.90;70.10
35746;DHT22;21870;42.812;74.628;2023-08-01T14:02:06;32.90;70.50
35746;DHT22;21870;42.812;74.628;2023-08-01T14:04:32;32.80;70.80
35746;DHT22;21870;42.812;74.628;2023-08-01T14:06:58;32.70;70.90
35746;DHT22;21870;42.812;74.628;2023-08-01T14:09:24;32.60;71.20
35746;DHT22;21870;42.812;74.628;2023-08-01T14:11:50;32.40;71.50
35746;DHT22;21870;42.812;74.628;2023-08-01T14:14:16;32.40;71.90
35746;DHT22;21870;42.812;74.628;2023-08-01T14:16:42;32.30;72.10
35746;DHT22;21870;42.812;74.628;2023-08-01T14:19:08;32.20;72.20
35746;DHT22;21870;42.812;74.628;2023-08-01T14:21:34;32.10;72.30
35746;DHT22;21870;42.812;74.628;2023-08-01T14:24:01;32.00;72.30
35746;DHT22;21870;42.812;74.628;2023-08-01T14:26:27;31.90;72.40
35746;DHT22;21870;42.812;74.628;2023-08-01T14:28:53;31.80;72.50
35746;DHT22;21870;42.812;74.628;2023-08-01T14:31:19;31.80;72.60
35746;DHT22;21870;42.812;74.628;2023-08-01T14:33:45;31.80;72.30
35746;DHT22;21870;42.812;74.628;2023-08-01T14:36:11;31.80;72.30
35746;DHT22;21870;42.812;74.628;2023-08-01T14:38:38;31.80;72.20
35746;DHT22;21870;42.812;74.628;2023-08-01T14:41:05;31.70;71.90
35746;DHT22;21870;42.812;74.628;2023-08-01T14:43:31;31.70;71.70
35746;DHT22;21870;42.812;74.628;2023-08-01T14:45:57;31.80;71.70
35746;DHT22;21870;42.812;74.628;2023-08-01T14:48:23;31.70;71.70
35746;DHT22;21870;42.812;74.628;2023-08-01T14:50:49;31.70;71.60
35746;DHT22;21870;42.812;74.628;2023-08-01T14:53:15;31.70;71.80
35746;DHT22;21870;42.812;74.628;2023-08-01T14:55:41;31.60;72.10
35746;DHT22;21870;42.812;74.628;2023-08-01T14:58:07;31.50;72.40
35746;DHT22;21870;42.812;74.628;2023-08-01T15:00:36;31.30;72.70
35746;DHT22;21870;42.812;74.628;2023-08-01T15:03:02;31.20;72.80
35746;DHT22;21870;42.812;74.628;2023-08-01T15:05:29;31.10;72.80
35746;DHT22;21870;42.812;74.628;2023-08-01T15:07:55;31.10;72.60
35746;DHT22;21870;42.812;74.628;2023-08-01T15:10:21;31.10;71.70
35746;DHT22;21870;42.812;74.628;2023-08-01T15:12:47;31.10;71.70
35746;DHT22;21870;42.812;74.628;2023-08-01T15:15:13;31.10;71.70
35746;DHT22;21870;42.812;74.628;2023-08-01T15:17:39;31.00;71.60
35746;DHT22;21870;42.812;74.628;2023-08-01T15:20:05;31.00;71.80